Time;durP1;ratioP1;P1;durP2;ratioP2;P2;SDS_P1;SDS_P2;PMS_P1;PMS_P2;Temp;Humidity;BMP_temperature;BMP_pressure;BME280_temperature;BME280_humidity;BME280_pressure;Samples;Min_cycle;Max_cycle;Signal;HPM_P1;HPM_P2
2023/08/11 00:00:25;;;;;;;0.37;0.37;;;14.20;99.90;;;;;;4430082;32;20077;-75
2023/08/11 00:02:50;;;;;;;4.22;0.60;;;14.10;99.90;;;;;;4444844;32;20124;-76
2023/08/11 00:05:18;;;;;;;0.47;0.47;;;14.10;99.90;;;;;;4444812;32;20074;-76
2023/08/11 00:07:45;;;;;;;0.50;0.50;;;14.10;99.90;;;;;;4444903;32;20085;-76
2023/08/11 00:10:12;;;;;;;0.60;0.60;;;14.20;99.90;;;;;;4441482;32;20082;-77
2023/08/11 00:12:39;;;;;;;0.50;0.50;;;14.10;99.90;;;;;;4431260;32;20058;-76
2023/08/11 00:15:06;;;;;;;5.53;0.57;;;14.00;99.90;;;;;;4429103;32;20057;-77
2023/08/11 00:17:32;;;;;;;0.57;0.57;;;14.00;99.90;;;;;;4426627;32;20081;-76
2023/08/11 00:19:57;;;;;;;0.40;0.40;;;13.90;99.90;;;;;;4438847;32;20077;-77
2023/08/11 00:22:23;;;;;;;0.88;0.60;;;14.00;99.90;;;;;;4441662;32;20168;-76
2023/08/11 00:24:49;;;;;;;0.80;0.70;;;14.00;99.90;;;;;;4440647;32;20069;-76
2023/08/11 00:27:14;;;;;;;0.60;0.60;;;14.10;99.90;;;;;;4440297;32;20073;-76
2023/08/11 00:29:40;;;;;;;0.82;0.62;;;14.10;99.90;;;;;;4430685;32;20129;-77
2023/08/11 00:32:05;;;;;;;0.93;0.68;;;14.00;99.90;;;;;;4425034;32;20065;-77
2023/08/11 00:34:31;;;;;;;1.58;0.98;;;14.00;99.90;;;;;;4425647;32;20073;-76
2023/08/11 00:36:56;;;;;;;0.70;0.70;;;13.90;99.90;;;;;;4425374;32;20075;-76
2023/08/11 00:39:22;;;;;;;0.68;0.68;;;13.90;99.90;;;;;;4425577;32;20082;-75
2023/08/11 00:41:47;;;;;;;0.82;0.82;;;13.90;99.90;;;;;;4433662;32;20078;-74
2023/08/11 00:44:13;;;;;;;0.75;0.75;;;13.90;99.90;;;;;;4440552;32;20073;-76
2023/08/11 00:46:42;;;;;;;0.68;0.68;;;13.90;99.90;;;;;;4441285;32;20073;-77
2023/08/11 00:49:09;;;;;;;0.50;0.50;;;13.90;99.90;;;;;;4441458;32;20081;-76
2023/08/11 00:51:35;;;;;;;0.52;0.52;;;13.90;99.90;;;;;;4441150;32;20065;-75
2023/08/11 00:54:01;;;;;;;0.82;0.70;;;14.00;99.90;;;;;;4440292;32;20077;-76
2023/08/11 00:56:27;;;;;;;1.08;0.75;;;14.00;99.90;;;;;;4440045;32;20058;-76
2023/08/11 00:58:53;;;;;;;3.45;1.62;;;14.00;99.90;;;;;;4440866;32;20116;-75
2023/08/11 01:01:18;;;;;;;0.50;0.50;;;14.00;99.90;;;;;;4437541;32;20069;-76
2023/08/11 01:03:47;;;;;;;0.60;0.60;;;14.00;99.90;;;;;;4410103;32;20069;-76
2023/08/11 01:06:33;;;;;;;0.30;0.30;;;13.80;99.90;;;;;;4409644;32;20069;-76
2023/08/11 01:09:24;;;;;;;1.85;0.98;;;13.80;99.90;;;;;;4409971;32;20091;-77
2023/08/11 01:12:07;;;;;;;0.57;0.57;;;13.70;99.90;;;;;;4419011;32;20081;-75
2023/08/11 01:15:12;;;;;;;0.55;0.55;;;13.60;99.90;;;;;;4438712;32;20073;-76
2023/08/11 01:17:41;;;;;;;0.43;0.40;;;13.60;99.90;;;;;;4411893;32;20083;-76
2023/08/11 01:20:10;;;;;;;0.30;0.30;;;13.70;99.90;;;;;;4435404;32;20082;-75
2023/08/11 01:22:38;;;;;;;0.43;0.43;;;13.70;99.90;;;;;;4420086;32;20815;-75
2023/08/11 01:25:06;;;;;;;0.57;0.57;;;13.60;99.90;;;;;;4434973;32;20098;-76
2023/08/11 01:27:36;;;;;;;0.43;0.43;;;13.60;99.90;;;;;;4431838;32;20085;-76
2023/08/11 01:30:04;;;;;;;0.47;0.47;;;13.60;99.90;;;;;;4435542;32;20068;-75
2023/08/11 01:32:29;;;;;;;0.68;0.68;;;13.60;99.90;;;;;;4424636;32;20078;-75
2023/08/11 01:34:55;;;;;;;0.50;0.50;;;13.60;99.90;;;;;;4424781;32;20086;-76
2023/08/11 01:37:21;;;;;;;0.88;0.88;;;13.60;99.90;;;;;;4424940;32;20074;-76
2023/08/11 01:39:46;;;;;;;0.88;0.82;;;13.60;99.90;;;;;;4424623;32;20082;-76
2023/08/11 01:42:12;;;;;;;0.77;0.70;;;13.60;99.90;;;;;;4437531;32;20086;-75
2023/08/11 01:44:37;;;;;;;1.30;1.02;;;13.50;99.90;;;;;;4435878;32;20072;-76
2023/08/11 01:47:05;;;;;;;0.47;0.47;;;13.50;99.90;;;;;;4426585;32;20070;-77
2023/08/11 01:49:31;;;;;;;0.62;0.62;;;13.50;99.90;;;;;;4431656;32;20469;-76
2023/08/11 01:51:57;;;;;;;2.05;0.85;;;13.50;99.90;;;;;;4435271;32;20086;-76
2023/08/11 01:54:23;;;;;;;1.48;1.10;;;13.50;99.90;;;;;;4437796;32;20082;-76
2023/08/11 01:56:49;;;;;;;0.50;0.50;;;13.50;99.90;;;;;;4439522;32;20069;-76
2023/08/11 01:59:15;;;;;;;0.60;0.60;;;13.40;99.90;;;;;;4425167;32;20090;-76
2023/08/11 02:01:41;;;;;;;0.62;0.62;;;13.50;99.90;;;;;;4430934;32;20073;-76
2023/08/11 02:04:08;;;;;;;0.85;0.62;;;13.40;99.90;;;;;;4432742;32;20120;-76
2023/08/11 02:06:35;;;;;;;1.62;0.95;;;13.40;99.90;;;;;;4437387;32;20128;-76
2023/08/11 02:09:01;;;;;;;1.77;0.70;;;13.40;99.90;;;;;;4424911;32;20058;-76
2023/08/11 02:11:27;;;;;;;0.40;0.40;;;13.40;99.90;;;;;;4434874;32;20077;-76
2023/08/11 02:13:52;;;;;;;0.60;0.60;;;13.40;99.90;;;;;;4432516;32;20062;-75
2023/08/11 02:16:18;;;;;;;0.60;0.55;;;13.40;99.90;;;;;;4427535;32;20077;-75
2023/08/11 02:18:44;;;;;;;0.60;0.60;;;13.30;99.90;;;;;;4432982;32;20082;-76
2023/08/11 02:21:10;;;;;;;0.73;0.70;;;13.40;99.90;;;;;;4430625;32;20133;-76
2023/08/11 02:23:35;;;;;;;0.57;0.57;;;13.40;99.90;;;;;;4438136;32;20062;-75
2023/08/11 02:26:01;;;;;;;0.45;0.45;;;13.60;99.90;;;;;;4437433;32;20061;-76
2023/08/11 02:28:26;;;;;;;0.40;0.40;;;13.60;99.90;;;;;;4414090;32;20118;-78
2023/08/11 02:30:52;;;;;;;2.33;0.60;;;13.60;99.90;;;;;;4426136;32;20572;-77
2023/08/11 02:33:18;;;;;;;0.37;0.37;;;13.50;99.90;;;;;;4433971;32;20090;-75
2023/08/11 02:35:45;;;;;;;0.70;0.70;;;13.60;99.90;;;;;;4438862;32;20065;-77
2023/08/11 02:38:11;;;;;;;0.47;0.47;;;13.50;99.90;;;;;;4436167;32;20078;-77
2023/08/11 02:40:37;;;;;;;0.50;0.50;;;13.60;99.90;;;;;;4424317;32;20062;-76
2023/08/11 02:43:02;;;;;;;0.80;0.75;;;13.70;99.90;;;;;;4432220;32;20078;-77
2023/08/11 02:45:28;;;;;;;0.68;0.65;;;13.70;99.90;;;;;;4442660;32;20123;-76
2023/08/11 02:47:53;;;;;;;1.40;0.47;;;13.80;99.90;;;;;;4436839;32;20066;-76
2023/08/11 02:50:19;;;;;;;0.47;0.47;;;13.80;99.90;;;;;;4438437;32;20080;-76
2023/08/11 02:52:45;;;;;;;0.60;0.60;;;13.80;99.90;;;;;;4441994;32;20074;-75
2023/08/11 02:55:11;;;;;;;0.65;0.50;;;13.80;99.90;;;;;;4441518;32;20090;-76
2023/08/11 02:57:37;;;;;;;0.57;0.57;;;13.90;99.90;;;;;;4441371;32;20072;-76
2023/08/11 03:00:12;;;;;;;0.57;0.57;;;14.00;99.90;;;;;;4432542;32;20074;-76
2023/08/11 03:02:39;;;;;;;5.68;0.82;;;14.00;99.90;;;;;;4441567;32;20069;-77
2023/08/11 03:05:07;;;;;;;0.80;0.60;;;14.00;99.90;;;;;;4441302;32;20065;-76
2023/08/11 03:07:34;;;;;;;0.47;0.47;;;14.00;99.90;;;;;;4441887;32;20129;-76
2023/08/11 03:10:00;;;;;;;3.10;0.50;;;14.00;99.90;;;;;;4437121;32;20070;-75
2023/08/11 03:12:27;;;;;;;0.82;0.68;;;14.00;99.90;;;;;;4436096;32;20075;-76
2023/08/11 03:14:53;;;;;;;0.57;0.50;;;14.00;99.90;;;;;;4427383;32;20061;-76
2023/08/11 03:17:19;;;;;;;0.43;0.43;;;14.00;99.90;;;;;;4426690;32;20082;-76
2023/08/11 03:19:45;;;;;;;0.60;0.60;;;14.10;99.90;;;;;;4426266;32;20086;-77
2023/08/11 03:22:10;;;;;;;0.55;0.55;;;14.10;99.90;;;;;;4426194;32;20522;-76
2023/08/11 03:24:36;;;;;;;0.68;0.68;;;14.10;99.90;;;;;;4425719;32;20070;-77
2023/08/11 03:27:01;;;;;;;0.47;0.47;;;14.10;99.90;;;;;;4426539;32;20065;-76
2023/08/11 03:29:27;;;;;;;20.58;1.00;;;14.00;99.90;;;;;;4438602;32;20061;-76
2023/08/11 03:31:52;;;;;;;0.88;0.88;;;14.00;99.90;;;;;;4442060;32;20070;-77
2023/08/11 03:34:18;;;;;;;0.50;0.50;;;14.00;99.90;;;;;;4441792;32;20073;-76
2023/08/11 03:36:44;;;;;;;0.47;0.47;;;14.00;99.90;;;;;;4441628;32;20074;-77
2023/08/11 03:39:09;;;;;;;1.10;0.88;;;14.00;99.90;;;;;;4434601;32;20079;-77
2023/08/11 03:41:35;;;;;;;0.73;0.73;;;14.10;99.90;;;;;;4425983;32;20066;-76
2023/08/11 03:44:01;;;;;;;2.35;0.88;;;14.10;99.90;;;;;;4425894;32;20072;-76
2023/08/11 03:46:26;;;;;;;2.00;0.75;;;14.10;99.90;;;;;;4425776;32;20079;-77
2023/08/11 03:48:52;;;;;;;0.50;0.50;;;14.00;99.90;;;;;;4429474;32;20073;-77
2023/08/11 03:51:18;;;;;;;1.27;0.77;;;14.10;99.90;;;;;;4430413;32;20061;-76
2023/08/11 03:53:43;;;;;;;0.60;0.60;;;14.00;99.90;;;;;;4425066;32;20121;-77
2023/08/11 03:56:12;;;;;;;0.45;0.45;;;14.10;99.90;;;;;;4426529;32;20082;-76
2023/08/11 03:58:38;;;;;;;0.40;0.40;;;14.20;99.90;;;;;;4428715;32;20081;-77
2023/08/11 04:01:04;;;;;;;0.40;0.40;;;14.30;99.90;;;;;;4441254;32;20062;-76
2023/08/11 04:03:31;;;;;;;5.00;1.83;;;14.20;99.90;;;;;;4442589;32;20077;-75
2023/08/11 04:05:58;;;;;;;1.95;0.70;;;14.20;99.90;;;;;;4424198;32;20069;-74
2023/08/11 04:08:25;;;;;;;0.30;0.30;;;14.20;99.90;;;;;;4432705;32;20210;-75
2023/08/11 04:10:50;;;;;;;0.50;0.50;;;14.10;99.90;;;;;;4430765;32;20090;-75
2023/08/11 04:13:16;;;;;;;0.40;0.40;;;14.10;99.90;;;;;;4428616;32;20070;-76
2023/08/11 04:15:42;;;;;;;5.53;1.55;;;14.10;99.90;;;;;;4429664;32;20203;-77
2023/08/11 04:18:08;;;;;;;0.52;0.47;;;14.20;99.90;;;;;;4436542;32;20112;-76
2023/08/11 04:20:33;;;;;;;0.47;0.47;;;14.20;99.90;;;;;;4440696;32;20546;-75
2023/08/11 04:22:59;;;;;;;3.42;1.85;;;14.20;99.90;;;;;;4442867;32;20078;-76
2023/08/11 04:25:25;;;;;;;0.55;0.55;;;14.10;99.90;;;;;;4442463;32;20077;-76
2023/08/11 04:27:50;;;;;;;0.68;0.68;;;14.10;99.90;;;;;;4444621;32;20061;-76
2023/08/11 04:30:16;;;;;;;0.70;0.70;;;14.10;99.90;;;;;;4439562;32;20108;-76
2023/08/11 04:32:43;;;;;;;0.60;0.60;;;14.10;99.90;;;;;;4431394;32;20109;-76
2023/08/11 04:35:08;;;;;;;0.40;0.40;;;14.10;99.90;;;;;;4431049;32;20042;-76
2023/08/11 04:37:34;;;;;;;10.65;1.17;;;14.00;99.90;;;;;;4443960;32;20081;-77
2023/08/11 04:40:03;;;;;;;0.47;0.45;;;14.00;99.90;;;;;;4436135;32;20419;-77
2023/08/11 04:42:28;;;;;;;0.55;0.55;;;14.00;99.90;;;;;;4430182;32;20073;-76
2023/08/11 04:44:55;;;;;;;1.00;0.65;;;14.00;99.90;;;;;;4442055;32;20077;-76
2023/08/11 04:47:20;;;;;;;0.30;0.30;;;14.10;99.90;;;;;;4442226;32;20481;-78
2023/08/11 04:49:46;;;;;;;0.65;0.50;;;14.10;99.90;;;;;;4441109;32;20077;-76
2023/08/11 04:52:12;;;;;;;0.75;0.65;;;14.10;99.90;;;;;;4434029;32;20085;-76
2023/08/11 04:54:38;;;;;;;0.60;0.50;;;14.20;99.90;;;;;;4426105;32;20121;-77
2023/08/11 04:57:03;;;;;;;0.60;0.60;;;14.30;99.90;;;;;;4439689;32;20619;-76
2023/08/11 04:59:29;;;;;;;4.32;0.80;;;14.30;99.90;;;;;;4441600;32;20061;-77
2023/08/11 05:01:55;;;;;;;2.05;1.25;;;14.30;99.90;;;;;;4430981;32;20125;-76
2023/08/11 05:04:21;;;;;;;0.40;0.40;;;14.40;99.90;;;;;;4426809;32;20054;-77
2023/08/11 05:06:46;;;;;;;1.45;0.80;;;14.40;99.90;;;;;;4438533;32;20073;-77
2023/08/11 05:09:12;;;;;;;4.18;1.10;;;14.40;99.90;;;;;;4432332;32;20078;-77
2023/08/11 05:11:38;;;;;;;1.67;1.05;;;14.50;99.90;;;;;;4426925;32;20521;-76
2023/08/11 05:14:03;;;;;;;1.17;0.82;;;14.60;99.90;;;;;;4426569;32;20074;-77
2023/08/11 05:16:29;;;;;;;0.60;0.60;;;14.60;99.90;;;;;;4437379;32;20070;-78
2023/08/11 05:18:54;;;;;;;0.62;0.62;;;14.50;99.90;;;;;;4435323;32;20082;-77
2023/08/11 05:21:20;;;;;;;0.50;0.50;;;14.60;99.90;;;;;;4425347;32;20146;-77
2023/08/11 05:23:45;;;;;;;0.30;0.30;;;14.70;99.90;;;;;;4421937;32;20082;-76
2023/08/11 05:26:11;;;;;;;2.75;0.95;;;14.80;99.90;;;;;;4424714;32;20136;-76
2023/08/11 05:28:37;;;;;;;0.50;0.50;;;14.90;99.90;;;;;;4425891;32;20034;-77
2023/08/11 05:31:04;;;;;;;0.50;0.50;;;14.90;99.90;;;;;;4425214;32;20072;-76
2023/08/11 05:33:30;;;;;;;0.62;0.50;;;15.00;99.90;;;;;;4428650;32;20065;-76
2023/08/11 05:35:55;;;;;;;3.22;0.85;;;15.00;99.90;;;;;;4425961;32;20120;-76
2023/08/11 05:38:23;;;;;;;1.62;0.75;;;15.00;99.90;;;;;;4425456;32;20086;-77
2023/08/11 05:40:50;;;;;;;0.52;0.52;;;15.10;99.90;;;;;;4426082;32;20065;-77
2023/08/11 05:43:15;;;;;;;0.40;0.40;;;15.20;99.90;;;;;;4427170;32;20077;-76
2023/08/11 05:45:41;;;;;;;0.45;0.45;;;15.20;99.90;;;;;;4426635;32;20079;-76
2023/08/11 05:48:06;;;;;;;0.30;0.30;;;15.40;99.90;;;;;;4425533;32;20038;-77
2023/08/11 05:50:32;;;;;;;0.47;0.47;;;15.50;99.90;;;;;;4426513;32;20065;-76
2023/08/11 05:52:57;;;;;;;0.52;0.52;;;15.50;99.90;;;;;;4426348;32;20444;-76
2023/08/11 05:55:23;;;;;;;2.30;1.00;;;15.60;99.90;;;;;;4428927;32;20073;-77
2023/08/11 05:57:49;;;;;;;2.03;1.00;;;15.70;99.90;;;;;;4442399;32;20038;-76
2023/08/11 06:00:17;;;;;;;0.60;0.60;;;15.70;99.90;;;;;;4426682;32;20564;-76
2023/08/11 06:02:43;;;;;;;0.30;0.30;;;15.80;99.90;;;;;;4427053;32;20061;-76
2023/08/11 06:05:09;;;;;;;0.37;0.35;;;15.80;99.90;;;;;;4428461;32;20066;-76
2023/08/11 06:07:34;;;;;;;0.62;0.62;;;15.90;99.90;;;;;;4441716;32;20086;-76
2023/08/11 06:10:00;;;;;;;0.65;0.65;;;16.00;99.90;;;;;;4431034;32;20101;-76
2023/08/11 06:12:25;;;;;;;5.25;1.05;;;16.10;99.90;;;;;;4426880;32;20062;-76
2023/08/11 06:14:51;;;;;;;2.12;0.75;;;16.10;99.90;;;;;;4427727;32;20083;-77
2023/08/11 06:17:16;;;;;;;0.30;0.30;;;16.10;99.90;;;;;;4437158;32;20082;-76
2023/08/11 06:19:42;;;;;;;4.37;0.60;;;16.20;99.90;;;;;;4432254;32;20045;-76
2023/08/11 06:22:08;;;;;;;0.40;0.40;;;16.30;99.90;;;;;;4425547;32;20070;-76
2023/08/11 06:24:33;;;;;;;0.65;0.57;;;16.50;99.90;;;;;;4433041;32;20066;-76
2023/08/11 06:26:59;;;;;;;4.75;1.00;;;16.50;99.90;;;;;;4426712;32;20058;-76
2023/08/11 06:29:24;;;;;;;0.73;0.73;;;16.60;99.90;;;;;;4427381;32;20105;-76
2023/08/11 06:31:50;;;;;;;0.45;0.45;;;16.60;99.90;;;;;;4427727;32;20074;-76
2023/08/11 06:34:17;;;;;;;1.00;0.82;;;16.60;99.90;;;;;;4427181;32;20134;-76
2023/08/11 06:36:44;;;;;;;0.40;0.40;;;16.80;99.90;;;;;;4427093;32;20074;-77
2023/08/11 06:39:10;;;;;;;0.40;0.40;;;16.90;99.90;;;;;;4426912;32;20082;-76
2023/08/11 06:41:36;;;;;;;4.07;0.62;;;17.00;99.90;;;;;;4427224;32;20075;-77
2023/08/11 06:44:01;;;;;;;0.65;0.52;;;17.00;99.90;;;;;;4434022;32;20101;-77
2023/08/11 06:46:27;;;;;;;0.52;0.52;;;17.00;99.90;;;;;;4439012;32;20059;-76
2023/08/11 06:48:52;;;;;;;0.40;0.40;;;17.10;99.90;;;;;;4437788;32;20084;-76
2023/08/11 06:51:17;;;;;;;0.55;0.55;;;17.20;99.90;;;;;;4426971;32;20103;-76
2023/08/11 06:53:43;;;;;;;0.50;0.50;;;17.20;99.90;;;;;;4426611;32;20058;-75
2023/08/11 06:56:08;;;;;;;3.25;1.50;;;17.20;99.90;;;;;;4426911;32;20078;-75
2023/08/11 06:58:34;;;;;;;0.70;0.62;;;17.20;99.90;;;;;;4427183;32;20081;-76
2023/08/11 07:01:00;;;;;;;8.65;2.15;;;17.20;99.90;;;;;;4426854;32;20065;-77
2023/08/11 07:03:25;;;;;;;0.77;0.70;;;17.10;99.90;;;;;;4425791;32;20082;-76
2023/08/11 07:05:51;;;;;;;2.50;1.02;;;17.20;99.90;;;;;;4430753;32;20059;-77
2023/08/11 07:08:17;;;;;;;0.45;0.45;;;17.30;99.90;;;;;;4427303;32;20097;-76
2023/08/11 07:10:43;;;;;;;0.80;0.70;;;17.40;99.90;;;;;;4424481;32;20188;-76
2023/08/11 07:13:08;;;;;;;0.20;0.20;;;17.40;99.90;;;;;;4426987;32;20095;-75
2023/08/11 07:15:34;;;;;;;0.50;0.50;;;17.50;99.90;;;;;;4437495;32;20117;-76
2023/08/11 07:17:59;;;;;;;0.30;0.30;;;17.50;99.90;;;;;;4427393;32;20058;-77
2023/08/11 07:20:25;;;;;;;0.52;0.45;;;17.60;99.90;;;;;;4426251;32;20062;-76
2023/08/11 07:22:51;;;;;;;7.47;1.33;;;17.70;99.90;;;;;;4427372;32;20097;-76
2023/08/11 07:25:16;;;;;;;0.30;0.30;;;17.80;99.90;;;;;;4425017;32;20066;-77
2023/08/11 07:27:42;;;;;;;0.82;0.82;;;17.90;99.90;;;;;;4423826;32;20186;-77
2023/08/11 07:30:09;;;;;;;0.40;0.40;;;18.00;99.90;;;;;;4424709;32;20147;-77
2023/08/11 07:32:35;;;;;;;0.85;0.65;;;18.10;99.90;;;;;;4434853;32;20077;-77
2023/08/11 07:35:00;;;;;;;0.45;0.45;;;18.20;99.90;;;;;;4427326;32;20099;-76
2023/08/11 07:37:26;;;;;;;0.40;0.40;;;18.30;99.90;;;;;;4427340;32;20120;-77
2023/08/11 07:39:51;;;;;;;0.55;0.50;;;18.40;99.90;;;;;;4427625;32;20070;-77
2023/08/11 07:42:17;;;;;;;0.35;0.35;;;18.50;99.90;;;;;;4433583;32;20435;-76
2023/08/11 07:44:43;;;;;;;0.70;0.40;;;18.60;99.90;;;;;;4432167;32;20094;-77
2023/08/11 07:47:09;;;;;;;0.40;0.40;;;18.70;99.90;;;;;;4428560;32;20358;-77
2023/08/11 07:49:34;;;;;;;0.47;0.47;;;18.90;99.90;;;;;;4428417;32;20058;-76
2023/08/11 07:52:00;;;;;;;0.30;0.30;;;19.00;99.90;;;;;;4428323;32;20082;-77
2023/08/11 07:54:25;;;;;;;2.72;1.45;;;19.10;99.90;;;;;;4434932;32;20086;-77
2023/08/11 07:56:51;;;;;;;0.20;0.20;;;19.20;99.90;;;;;;4424054;32;20066;-76
2023/08/11 07:59:16;;;;;;;1.65;0.93;;;19.30;99.90;;;;;;4426875;32;20086;-76
2023/08/11 08:01:42;;;;;;;0.40;0.40;;;19.30;99.90;;;;;;4424984;32;20566;-76
2023/08/11 08:04:07;;;;;;;0.32;0.32;;;19.30;99.90;;;;;;4424803;32;20078;-77
2023/08/11 08:06:35;;;;;;;0.30;0.30;;;19.40;99.90;;;;;;4425129;32;20556;-76
2023/08/11 08:09:02;;;;;;;0.35;0.35;;;19.50;99.90;;;;;;4426814;32;20286;-78
2023/08/11 08:11:28;;;;;;;0.30;0.30;;;19.60;99.90;;;;;;4433784;32;20094;-77
2023/08/11 08:13:54;;;;;;;0.50;0.50;;;19.80;99.90;;;;;;4431845;32;20058;-77
2023/08/11 08:16:19;;;;;;;0.30;0.30;;;19.90;99.90;;;;;;4426597;32;20478;-77
2023/08/11 08:18:45;;;;;;;1.55;0.60;;;20.00;99.90;;;;;;4428487;32;20073;-77
2023/08/11 08:21:11;;;;;;;0.30;0.30;;;20.10;99.90;;;;;;4427845;32;20070;-77
2023/08/11 08:23:37;;;;;;;0.47;0.45;;;20.20;99.90;;;;;;4439692;32;20066;-77
2023/08/11 08:26:03;;;;;;;0.40;0.40;;;20.40;99.90;;;;;;4430091;32;20068;-77
2023/08/11 08:28:28;;;;;;;0.20;0.20;;;20.40;99.90;;;;;;4440786;32;20070;-76
2023/08/11 08:30:54;;;;;;;1.20;1.00;;;20.40;99.90;;;;;;4425344;32;20057;-77
2023/08/11 08:33:20;;;;;;;0.80;0.70;;;20.50;99.90;;;;;;4428427;32;20112;-75
2023/08/11 08:35:46;;;;;;;0.43;0.43;;;20.60;99.90;;;;;;4425546;32;20073;-76
2023/08/11 08:38:11;;;;;;;1.10;0.55;;;20.70;99.90;;;;;;4427292;32;20412;-75
2023/08/11 08:40:37;;;;;;;0.20;0.20;;;20.80;99.90;;;;;;4429705;32;20034;-76
2023/08/11 08:43:04;;;;;;;0.20;0.20;;;20.80;99.90;;;;;;4426402;32;20074;-76
2023/08/11 08:45:31;;;;;;;0.20;0.20;;;20.90;99.90;;;;;;4425346;32;20065;-76
2023/08/11 08:47:58;;;;;;;0.40;0.30;;;21.10;99.90;;;;;;4423321;32;20097;-77
2023/08/11 08:50:24;;;;;;;0.60;0.60;;;21.00;99.90;;;;;;4428327;32;20057;-77
2023/08/11 08:52:51;;;;;;;0.45;0.45;;;21.10;99.90;;;;;;4422341;32;20074;-77
2023/08/11 08:55:18;;;;;;;0.28;0.20;;;21.20;99.90;;;;;;4422497;32;20066;-77
2023/08/11 08:57:45;;;;;;;0.30;0.30;;;21.30;99.90;;;;;;4425725;32;20078;-77
2023/08/11 09:00:11;;;;;;;0.40;0.40;;;21.40;99.90;;;;;;4423289;32;20101;-78
2023/08/11 09:02:37;;;;;;;0.70;0.40;;;21.40;99.90;;;;;;4424164;32;20116;-77
2023/08/11 09:05:03;;;;;;;1.45;0.37;;;21.50;99.90;;;;;;4425792;32;20081;-78
2023/08/11 09:07:28;;;;;;;0.90;0.68;;;21.60;99.90;;;;;;4423911;32;20082;-77
2023/08/11 09:09:54;;;;;;;0.30;0.30;;;21.80;99.90;;;;;;4419632;32;20097;-77
2023/08/11 09:12:19;;;;;;;0.20;0.20;;;21.80;99.90;;;;;;4428493;32;20089;-77
2023/08/11 09:14:45;;;;;;;0.30;0.30;;;21.70;99.90;;;;;;4434669;32;20085;-76
2023/08/11 09:17:11;;;;;;;0.25;0.25;;;21.70;99.90;;;;;;4426824;32;20062;-74
2023/08/11 09:19:37;;;;;;;1.37;0.47;;;21.80;99.90;;;;;;4425117;32;20070;-75
2023/08/11 09:22:09;;;;;;;0.40;0.40;;;22.00;99.90;;;;;;4430364;32;20075;-75
2023/08/11 09:24:34;;;;;;;0.20;0.20;;;21.90;99.90;;;;;;4440159;32;20078;-75
2023/08/11 09:27:00;;;;;;;0.20;0.20;;;21.90;99.90;;;;;;4427473;32;20066;-77
2023/08/11 09:29:25;;;;;;;0.17;0.17;;;22.00;99.90;;;;;;4422382;32;20069;-76
2023/08/11 09:31:54;;;;;;;0.20;0.20;;;21.90;99.90;;;;;;4420278;32;20090;-76
2023/08/11 09:34:20;;;;;;;0.20;0.20;;;21.70;99.90;;;;;;4427024;32;20061;-74
2023/08/11 09:36:48;;;;;;;0.60;0.52;;;21.80;99.90;;;;;;4420957;32;20195;-75
2023/08/11 09:39:15;;;;;;;0.20;0.20;;;22.10;99.90;;;;;;4406895;32;20101;-74
2023/08/11 09:41:45;;;;;;;0.28;0.28;;;22.30;99.90;;;;;;4421533;32;20074;-75
2023/08/11 09:44:14;;;;;;;0.20;0.20;;;22.20;99.90;;;;;;4427901;32;20065;-75
2023/08/11 09:46:40;;;;;;;0.25;0.25;;;22.10;99.90;;;;;;4426753;32;20072;-75
2023/08/11 09:49:07;;;;;;;0.30;0.30;;;22.20;99.90;;;;;;4423058;32;20073;-76
2023/08/11 09:51:35;;;;;;;0.20;0.20;;;22.20;99.90;;;;;;4428108;32;20074;-75
2023/08/11 09:54:04;;;;;;;0.30;0.30;;;22.20;99.90;;;;;;4440369;32;20077;-76
2023/08/11 09:56:33;;;;;;;0.30;0.30;;;22.40;99.90;;;;;;4426823;32;20066;-76
2023/08/11 09:59:01;;;;;;;0.22;0.22;;;22.90;99.90;;;;;;4432866;32;20069;-76
2023/08/11 10:01:28;;;;;;;0.30;0.30;;;23.20;99.90;;;;;;4429034;32;20069;-75
2023/08/11 10:03:57;;;;;;;0.25;0.22;;;23.40;99.90;;;;;;4423614;32;20120;-76
2023/08/11 10:06:29;;;;;;;0.20;0.20;;;23.40;99.90;;;;;;4426282;32;20065;-76
2023/08/11 10:09:00;;;;;;;0.20;0.20;;;23.60;99.90;;;;;;4423216;32;20074;-76
2023/08/11 10:11:28;;;;;;;0.22;0.20;;;23.80;99.90;;;;;;4432274;32;20030;-75
2023/08/11 10:13:56;;;;;;;0.20;0.20;;;23.90;99.90;;;;;;4420607;32;20081;-76
2023/08/11 10:16:23;;;;;;;0.20;0.20;;;23.90;99.90;;;;;;4422386;32;20074;-76
2023/08/11 10:18:49;;;;;;;0.20;0.20;;;24.00;99.90;;;;;;4424353;32;20070;-76
2023/08/11 10:21:15;;;;;;;0.20;0.20;;;24.20;99.90;;;;;;4426938;32;20073;-76
2023/08/11 10:23:42;;;;;;;0.37;0.35;;;24.20;99.90;;;;;;4429027;32;20062;-76
2023/08/11 10:26:08;;;;;;;0.20;0.20;;;24.20;99.90;;;;;;4421813;32;20078;-75
2023/08/11 10:28:34;;;;;;;0.20;0.20;;;24.10;99.90;;;;;;4423140;32;20069;-75
2023/08/11 10:31:04;;;;;;;0.10;0.10;;;24.40;99.90;;;;;;4428329;32;20058;-76
2023/08/11 10:33:31;;;;;;;1.10;0.68;;;24.80;99.90;;;;;;4426278;32;20139;-76
2023/08/11 10:35:58;;;;;;;0.20;0.20;;;25.30;99.90;;;;;;4419041;32;20091;-75
2023/08/11 10:38:29;;;;;;;0.35;0.22;;;25.30;99.90;;;;;;4417368;32;20074;-76
2023/08/11 10:41:10;;;;;;;0.55;0.55;;;25.20;99.90;;;;;;4422838;32;20125;-76
2023/08/11 10:43:40;;;;;;;0.40;0.40;;;25.30;99.90;;;;;;4428910;32;20085;-75
2023/08/11 10:46:16;;;;;;;0.20;0.20;;;25.60;99.90;;;;;;4422186;32;20069;-75
2023/08/11 10:48:42;;;;;;;0.15;0.15;;;25.60;99.40;;;;;;4419979;32;20101;-75
2023/08/11 10:51:25;;;;;;;0.20;0.20;;;25.60;99.90;;;;;;4425666;32;20521;-75
2023/08/11 10:53:50;;;;;;;0.10;0.10;;;26.00;99.90;;;;;;4435151;32;20120;-76
2023/08/11 10:56:27;;;;;;;0.22;0.22;;;25.90;99.20;;;;;;4428081;32;20038;-75
2023/08/11 10:59:04;;;;;;;2.08;0.55;;;25.90;99.10;;;;;;4422670;32;20086;-75
2023/08/11 11:01:30;;;;;;;0.30;0.30;;;26.00;98.70;;;;;;4422021;32;20062;-75
2023/08/11 11:03:55;;;;;;;0.10;0.10;;;26.20;98.90;;;;;;4424816;32;20086;-75
2023/08/11 11:06:21;;;;;;;0.10;0.10;;;26.50;99.20;;;;;;4427419;32;20073;-75
2023/08/11 11:08:46;;;;;;;0.43;0.22;;;26.50;98.90;;;;;;4425330;32;20628;-77
2023/08/11 11:11:12;;;;;;;0.35;0.30;;;26.50;99.90;;;;;;4416724;32;20126;-76
2023/08/11 11:13:37;;;;;;;0.00;0.00;;;26.20;98.20;;;;;;4419324;32;20093;-76
2023/08/11 11:16:02;;;;;;;0.20;0.20;;;26.20;99.90;;;;;;4418847;32;20116;-77
2023/08/11 11:18:28;;;;;;;0.15;0.15;;;26.50;98.90;;;;;;4408395;32;20070;-75
2023/08/11 11:23:22;;;;;;;0.20;0.20;;;26.60;98.60;;;;;;4408602;32;20145;-64
2023/08/11 11:25:49;;;;;;;1.90;0.57;;;26.50;99.20;;;;;;4415257;32;20058;-64
2023/08/11 11:28:14;;;;;;;0.13;0.13;;;26.70;99.20;;;;;;4402804;32;20139;-64
2023/08/11 11:30:40;;;;;;;0.00;0.00;;;26.40;99.00;;;;;;4400353;32;20083;-64
2023/08/11 11:33:07;;;;;;;0.10;0.10;;;26.40;98.30;;;;;;4405840;32;20083;-64
2023/08/11 11:35:33;;;;;;;0.13;0.13;;;26.50;97.80;;;;;;4406393;32;20574;-64
2023/08/11 11:37:58;;;;;;;2.53;0.20;;;26.70;98.50;;;;;;4405272;32;20070;-64
2023/08/11 11:40:24;;;;;;;0.17;0.15;;;27.20;98.30;;;;;;4409850;32;20062;-64
2023/08/11 11:42:50;;;;;;;0.10;0.10;;;27.70;97.50;;;;;;4424440;32;20081;-63
2023/08/11 11:45:16;;;;;;;0.70;0.45;;;27.80;96.50;;;;;;4423734;32;20062;-63
2023/08/11 11:47:42;;;;;;;0.90;0.45;;;28.00;97.10;;;;;;4418324;32;86181;-63
2023/08/11 11:50:08;;;;;;;0.03;0.03;;;28.30;96.10;;;;;;4424324;32;20057;-64
2023/08/11 11:52:36;;;;;;;1.10;0.37;;;28.20;94.80;;;;;;4417880;32;20091;-63
2023/08/11 11:55:02;;;;;;;1.48;0.77;;;28.00;96.10;;;;;;4400892;32;20578;-63
2023/08/11 11:57:28;;;;;;;0.00;0.00;;;28.10;96.20;;;;;;4422262;32;20082;-64
2023/08/11 11:59:54;;;;;;;0.10;0.10;;;28.20;96.50;;;;;;4422417;32;20093;-64
2023/08/11 12:02:19;;;;;;;0.10;0.10;;;28.40;96.20;;;;;;4393178;32;20083;-64
2023/08/11 12:04:46;;;;;;;0.00;0.00;;;28.60;95.20;;;;;;4392046;32;20436;-64
2023/08/11 12:07:32;;;;;;;0.05;0.05;;;28.70;94.80;;;;;;4395917;32;20114;-64
2023/08/11 12:09:58;;;;;;;0.32;0.20;;;29.00;94.30;;;;;;4383918;32;20070;-64
2023/08/11 12:12:25;;;;;;;1.87;0.70;;;28.90;94.30;;;;;;4401791;32;20078;-64
2023/08/11 12:14:52;;;;;;;0.10;0.10;;;28.80;94.00;;;;;;4405607;32;20061;-64
2023/08/11 12:17:17;;;;;;;0.10;0.10;;;28.80;95.20;;;;;;4415778;32;20082;-64
2023/08/11 12:19:45;;;;;;;0.00;0.00;;;29.40;94.10;;;;;;4422085;32;20082;-64
2023/08/11 12:22:11;;;;;;;0.10;0.10;;;29.90;92.70;;;;;;4420706;32;20077;-64
2023/08/11 12:24:36;;;;;;;0.00;0.00;;;30.00;92.40;;;;;;4392402;32;20066;-63
2023/08/11 12:27:03;;;;;;;2.03;0.90;;;29.80;92.50;;;;;;4412463;32;20097;-63
2023/08/11 12:29:28;;;;;;;0.10;0.10;;;29.80;93.60;;;;;;4418990;32;20116;-63
2023/08/11 12:31:54;;;;;;;0.73;0.40;;;29.70;93.50;;;;;;4419735;32;20125;-63
2023/08/11 12:34:19;;;;;;;0.10;0.10;;;29.40;93.00;;;;;;4421668;32;20103;-63
2023/08/11 12:36:45;;;;;;;0.00;0.00;;;28.80;93.80;;;;;;4416691;32;20039;-62
2023/08/11 12:39:10;;;;;;;0.10;0.10;;;29.20;93.70;;;;;;4403267;32;20074;-62
2023/08/11 12:41:38;;;;;;;0.00;0.00;;;29.50;92.50;;;;;;4397908;32;20078;-63
2023/08/11 12:44:04;;;;;;;0.00;0.00;;;29.80;92.20;;;;;;4391715;32;20153;-62
2023/08/11 12:46:30;;;;;;;0.10;0.10;;;30.20;92.00;;;;;;4407034;32;20615;-63